createdAt,value
2023-07-24T00:01:26.690Z,100.00
2023-07-24T00:03:53.228Z,100.00
2023-07-24T00:06:19.523Z,100.00
2023-07-24T00:08:45.804Z,100.00
2023-07-24T00:11:12.089Z,100.00
2023-07-24T00:13:38.381Z,100.00
2023-07-24T00:16:10.808Z,100.00
2023-07-24T00:18:37.160Z,100.00
2023-07-24T00:21:03.469Z,100.00
2023-07-24T00:23:29.911Z,100.00
2023-07-24T00:25:56.214Z,100.00
2023-07-24T00:28:22.497Z,100.00
2023-07-24T00:30:48.864Z,100.00
2023-07-24T00:33:15.279Z,100.00
2023-07-24T00:35:41.564Z,100.00
2023-07-24T00:38:07.829Z,100.00
2023-07-24T00:40:34.147Z,100.00
2023-07-24T00:43:00.414Z,100.00
2023-07-24T00:45:26.784Z,100.00
2023-07-24T00:47:53.067Z,100.00
2023-07-24T00:50:19.953Z,100.00
2023-07-24T00:52:46.449Z,100.00
2023-07-24T00:55:13.641Z,100.00
2023-07-24T00:57:40.837Z,100.00
2023-07-24T01:00:07.785Z,100.00
2023-07-24T01:02:34.129Z,100.00
2023-07-24T01:05:00.561Z,100.00
2023-07-24T01:07:26.909Z,100.00
2023-07-24T01:09:53.230Z,100.00
2023-07-24T01:12:32.549Z,100.00
2023-07-24T01:15:03.910Z,100.00
2023-07-24T01:17:31.920Z,100.00
2023-07-24T01:19:59.758Z,100.00
2023-07-24T01:22:29.028Z,100.00
2023-07-24T01:24:55.304Z,100.00
2023-07-24T01:27:24.413Z,100.00
2023-07-24T01:29:50.744Z,100.00
2023-07-24T01:32:17.219Z,100.00
2023-07-24T01:34:43.507Z,100.00
2023-07-24T01:37:10.521Z,100.00
2023-07-24T01:39:37.281Z,100.00
2023-07-24T01:42:03.979Z,100.00
2023-07-24T01:44:30.841Z,100.00
2023-07-24T01:46:57.191Z,100.00
2023-07-24T01:49:23.529Z,100.00
2023-07-24T01:51:49.824Z,100.00
2023-07-24T01:54:16.128Z,100.00
2023-07-24T01:56:42.814Z,100.00
2023-07-24T01:59:09.084Z,100.00
2023-07-24T02:01:35.424Z,100.00
2023-07-24T02:04:02.222Z,100.00
2023-07-24T02:06:28.816Z,100.00
2023-07-24T02:08:55.370Z,100.00
2023-07-24T02:11:21.647Z,100.00
2023-07-24T02:13:48.116Z,100.00
2023-07-24T02:16:14.469Z,100.00
2023-07-24T02:21:18.202Z,100.00
2023-07-24T02:23:44.480Z,100.00
2023-07-24T02:26:10.755Z,100.00
2023-07-24T02:28:37.062Z,100.00
2023-07-24T02:31:03.347Z,100.00
2023-07-24T02:33:29.632Z,100.00
2023-07-24T02:35:55.928Z,100.00
2023-07-24T02:38:22.261Z,100.00
2023-07-24T02:40:48.626Z,100.00
2023-07-24T02:43:14.908Z,100.00
2023-07-24T02:45:41.251Z,100.00
2023-07-24T02:48:07.673Z,100.00
2023-07-24T02:50:34.105Z,100.00
2023-07-24T02:53:00.541Z,100.00
2023-07-24T02:55:26.817Z,100.00
2023-07-24T02:57:54.564Z,100.00
2023-07-24T03:02:47.313Z,100.00
2023-07-24T03:05:13.659Z,100.00
2023-07-24T03:07:39.942Z,100.00
2023-07-24T03:10:06.502Z,100.00
2023-07-24T03:12:32.771Z,100.00
2023-07-24T03:14:59.091Z,100.00
2023-07-24T03:17:25.440Z,100.00
2023-07-24T03:19:51.781Z,100.00
2023-07-24T03:22:18.077Z,100.00
2023-07-24T03:24:44.387Z,100.00
2023-07-24T03:27:10.660Z,100.00
2023-07-24T03:29:36.953Z,100.00
2023-07-24T03:32:03.335Z,100.00
2023-07-24T03:34:29.646Z,100.00
2023-07-24T03:36:55.919Z,100.00
2023-07-24T03:39:22.246Z,100.00
2023-07-24T03:41:48.531Z,100.00
2023-07-24T03:44:14.824Z,100.00
2023-07-24T03:46:41.142Z,100.00
2023-07-24T03:49:07.459Z,100.00
2023-07-24T03:51:33.755Z,100.00
2023-07-24T03:54:00.049Z,100.00
2023-07-24T03:56:26.406Z,100.00
2023-07-24T03:58:53.175Z,100.00
2023-07-24T04:01:19.668Z,100.00
2023-07-24T04:03:46.143Z,100.00
2023-07-24T04:06:12.450Z,100.00
2023-07-24T04:08:38.739Z,100.00
2023-07-24T04:11:05.057Z,100.00
2023-07-24T04:13:31.335Z,100.00
2023-07-24T04:15:57.615Z,100.00
2023-07-24T04:18:23.903Z,100.00
2023-07-24T04:20:50.166Z,100.00
2023-07-24T04:23:16.488Z,100.00
2023-07-24T04:25:42.777Z,100.00
2023-07-24T04:28:09.036Z,100.00
2023-07-24T04:30:35.331Z,100.00
2023-07-24T04:33:01.658Z,100.00
2023-07-24T04:35:28.054Z,100.00
2023-07-24T04:37:54.355Z,100.00
2023-07-24T04:40:20.643Z,100.00
2023-07-24T04:42:46.922Z,100.00
2023-07-24T04:45:13.219Z,100.00
2023-07-24T04:47:39.503Z,100.00
2023-07-24T04:50:06.205Z,100.00
2023-07-24T04:52:32.545Z,100.00
2023-07-24T04:54:58.847Z,100.00
2023-07-24T04:57:25.127Z,100.00
2023-07-24T04:59:51.428Z,100.00
2023-07-24T05:02:17.706Z,100.00
2023-07-24T05:04:44.018Z,100.00
2023-07-24T05:07:10.280Z,100.00
2023-07-24T05:09:36.597Z,100.00
2023-07-24T05:12:02.953Z,100.00
2023-07-24T05:14:29.219Z,100.00
2023-07-24T05:16:55.559Z,100.00
2023-07-24T05:19:21.910Z,100.00
2023-07-24T05:21:48.214Z,100.00
2023-07-24T05:24:14.594Z,100.00
2023-07-24T05:26:40.933Z,100.00
2023-07-24T05:29:07.230Z,100.00
2023-07-24T05:31:35.002Z,100.00
2023-07-24T05:34:01.333Z,100.00
2023-07-24T05:36:28.142Z,100.00
2023-07-24T05:38:54.696Z,100.00
2023-07-24T05:41:20.940Z,100.00
2023-07-24T05:43:47.189Z,100.00
2023-07-24T05:48:27.959Z,100.00
2023-07-24T05:50:54.213Z,100.00
2023-07-24T05:53:20.508Z,100.00
2023-07-24T05:55:46.794Z,100.00
2023-07-24T05:58:13.084Z,100.00
2023-07-24T06:00:39.844Z,100.00
2023-07-24T06:03:08.342Z,100.00
2023-07-24T06:05:35.061Z,100.00
2023-07-24T06:08:01.383Z,100.00
2023-07-24T06:10:27.700Z,100.00
2023-07-24T06:12:54.025Z,100.00
2023-07-24T06:15:20.376Z,100.00
2023-07-24T06:17:46.706Z,100.00
2023-07-24T06:20:13.029Z,100.00
2023-07-24T06:22:39.333Z,100.00
2023-07-24T06:25:05.904Z,100.00
2023-07-24T06:27:32.173Z,100.00
2023-07-24T06:30:09.258Z,100.00
2023-07-24T06:32:41.050Z,100.00
2023-07-24T06:35:07.555Z,100.00
2023-07-24T06:37:33.867Z,100.00
2023-07-24T06:40:00.165Z,100.00
2023-07-24T06:42:26.509Z,100.00
2023-07-24T06:44:52.788Z,100.00
2023-07-24T06:47:19.231Z,100.00
2023-07-24T06:49:45.518Z,100.00
2023-07-24T06:52:11.792Z,100.00
2023-07-24T06:54:38.076Z,100.00
2023-07-24T06:57:04.449Z,100.00
2023-07-24T06:59:30.822Z,100.00
2023-07-24T07:01:57.106Z,100.00
2023-07-24T07:04:23.412Z,100.00
2023-07-24T07:06:50.055Z,100.00
2023-07-24T07:09:16.530Z,100.00
2023-07-24T07:11:42.842Z,100.00
2023-07-24T07:14:09.110Z,100.00
2023-07-24T07:16:35.655Z,100.00
2023-07-24T07:19:01.969Z,100.00
2023-07-24T07:21:28.294Z,100.00
2023-07-24T07:23:54.622Z,100.00
2023-07-24T07:26:20.956Z,100.00
2023-07-24T07:28:47.233Z,100.00
2023-07-24T07:31:13.573Z,100.00
2023-07-24T07:33:39.929Z,100.00
2023-07-24T07:36:06.235Z,99.70
2023-07-24T07:38:32.867Z,99.78
2023-07-24T07:40:59.180Z,100.00
2023-07-24T07:43:25.476Z,100.00
2023-07-24T07:45:51.769Z,100.00
2023-07-24T07:48:18.040Z,100.00
2023-07-24T07:50:45.213Z,100.00
2023-07-24T07:53:11.501Z,100.00
2023-07-24T07:55:37.818Z,98.73
2023-07-24T07:58:04.106Z,98.39
2023-07-24T08:00:30.403Z,97.76
2023-07-24T08:02:56.755Z,100.00
2023-07-24T08:05:23.100Z,99.56
2023-07-24T08:07:49.356Z,100.00
2023-07-24T08:10:15.701Z,100.00
2023-07-24T08:12:41.982Z,99.53
2023-07-24T08:15:08.637Z,96.97
2023-07-24T08:17:34.942Z,96.92
2023-07-24T08:20:01.279Z,94.35
2023-07-24T08:22:27.576Z,92.28
2023-07-24T08:24:56.856Z,91.51
2023-07-24T08:27:23.632Z,90.61
2023-07-24T08:29:53.033Z,91.91
2023-07-24T08:32:19.597Z,91.80
2023-07-24T08:34:45.949Z,89.99
2023-07-24T08:37:12.393Z,88.80
2023-07-24T08:39:38.702Z,89.49
2023-07-24T08:42:11.695Z,87.29
2023-07-24T08:44:38.238Z,86.75
2023-07-24T08:47:04.812Z,88.54
2023-07-24T08:49:31.388Z,90.52
2023-07-24T08:52:01.289Z,92.08
2023-07-24T08:54:28.257Z,93.14
2023-07-24T08:56:54.542Z,93.23
2023-07-24T08:59:20.826Z,91.91
2023-07-24T09:01:47.087Z,91.71
2023-07-24T09:04:13.400Z,90.44
2023-07-24T09:06:39.714Z,88.35
2023-07-24T09:09:15.841Z,87.05
2023-07-24T09:11:49.985Z,85.38
2023-07-24T09:14:25.950Z,87.14
2023-07-24T09:17:08.312Z,85.91
2023-07-24T09:19:35.219Z,87.93
2023-07-24T09:22:11.680Z,89.34
2023-07-24T09:24:38.008Z,89.09
2023-07-24T09:27:05.943Z,89.38
2023-07-24T09:29:33.088Z,87.24
2023-07-24T09:32:02.374Z,84.41
2023-07-24T09:34:28.674Z,86.02
2023-07-24T09:36:54.989Z,84.21
2023-07-24T09:39:30.023Z,85.53
2023-07-24T09:42:03.439Z,84.98
2023-07-24T09:44:31.204Z,84.22
2023-07-24T09:49:26.961Z,81.02
2023-07-24T09:51:55.010Z,79.58
2023-07-24T09:54:26.723Z,80.80
2023-07-24T09:57:00.612Z,83.75
2023-07-24T09:59:37.288Z,86.73
2023-07-24T10:02:04.235Z,86.35
2023-07-24T10:04:30.701Z,86.10
2023-07-24T10:06:57.170Z,80.89
2023-07-24T10:09:23.478Z,78.81
2023-07-24T10:11:49.760Z,76.51
2023-07-24T10:14:16.720Z,78.66
2023-07-24T10:16:43.058Z,75.33
2023-07-24T10:19:15.775Z,75.68
2023-07-24T10:21:45.823Z,77.18
2023-07-24T10:24:15.351Z,77.86
2023-07-24T10:26:43.611Z,79.22
2023-07-24T10:29:11.078Z,81.28
2023-07-24T10:31:39.177Z,81.44
2023-07-24T10:34:06.606Z,81.60
2023-07-24T10:36:36.452Z,83.38
2023-07-24T10:39:02.808Z,82.02
2023-07-24T10:41:35.686Z,84.66
2023-07-24T10:44:02.036Z,80.57
2023-07-24T10:46:36.673Z,80.87
2023-07-24T10:49:03.002Z,80.70
2023-07-24T10:51:30.558Z,78.33
2023-07-24T10:53:56.976Z,74.72
2023-07-24T10:56:23.281Z,74.01
2023-07-24T10:58:49.569Z,73.45
2023-07-24T11:01:15.884Z,80.28
2023-07-24T11:03:42.868Z,75.80
2023-07-24T11:06:13.452Z,76.42
2023-07-24T11:08:39.975Z,74.19
2023-07-24T11:11:06.237Z,73.69
2023-07-24T11:13:32.585Z,75.75
2023-07-24T11:16:04.491Z,77.88
2023-07-24T11:18:40.697Z,81.31
2023-07-24T11:21:14.806Z,80.53
2023-07-24T11:23:50.806Z,81.79
2023-07-24T11:26:19.346Z,80.46
2023-07-24T11:28:45.696Z,79.59
2023-07-24T11:31:12.025Z,79.24
2023-07-24T11:33:38.800Z,77.29
2023-07-24T11:36:05.549Z,78.11
2023-07-24T11:38:31.956Z,76.33
2023-07-24T11:40:58.355Z,76.77
2023-07-24T11:43:25.305Z,77.83
2023-07-24T11:45:52.535Z,80.17
2023-07-24T11:48:19.530Z,82.88
2023-07-24T11:50:46.815Z,84.79
2023-07-24T11:53:19.983Z,86.37
2023-07-24T11:55:46.271Z,85.35
2023-07-24T11:58:15.273Z,88.26
2023-07-24T12:00:41.564Z,86.51
2023-07-24T12:03:08.240Z,86.83
2023-07-24T12:05:40.666Z,85.30
2023-07-24T12:08:07.013Z,83.54
2023-07-24T12:10:36.350Z,83.08
2023-07-24T12:13:02.642Z,76.14
2023-07-24T12:15:29.054Z,79.04
2023-07-24T12:17:55.534Z,77.78
2023-07-24T12:20:21.883Z,77.90
2023-07-24T12:22:48.184Z,77.85
2023-07-24T12:25:14.496Z,78.37
2023-07-24T12:27:40.812Z,77.85
2023-07-24T12:30:07.331Z,77.57
2023-07-24T12:32:33.775Z,77.70
2023-07-24T12:35:00.130Z,78.54
2023-07-24T12:37:26.435Z,83.13
2023-07-24T12:39:52.757Z,83.47
2023-07-24T12:42:19.082Z,85.13
2023-07-24T12:44:45.412Z,84.30
2023-07-24T12:47:12.551Z,85.72
2023-07-24T12:49:39.034Z,85.98
2023-07-24T12:52:05.478Z,88.46
2023-07-24T12:54:46.362Z,88.05
2023-07-24T12:57:18.769Z,88.93
2023-07-24T12:59:45.095Z,91.09
2023-07-24T13:02:11.392Z,93.27
2023-07-24T13:04:37.742Z,94.77
2023-07-24T13:07:04.097Z,97.73
2023-07-24T13:09:30.370Z,99.04
2023-07-24T13:11:56.654Z,100.00
2023-07-24T13:14:22.932Z,100.00
2023-07-24T13:16:49.250Z,100.00
2023-07-24T13:19:15.560Z,100.00
2023-07-24T13:21:41.866Z,100.00
2023-07-24T13:24:08.167Z,100.00
2023-07-24T13:26:34.486Z,100.00
2023-07-24T13:29:00.794Z,100.00
2023-07-24T13:31:27.096Z,100.00
2023-07-24T13:33:53.356Z,100.00
2023-07-24T13:36:19.656Z,100.00
2023-07-24T13:38:45.935Z,99.89
2023-07-24T13:41:12.233Z,97.66
2023-07-24T13:43:38.555Z,97.51
2023-07-24T13:46:04.851Z,97.02
2023-07-24T13:48:31.314Z,96.65
2023-07-24T13:50:57.711Z,95.25
2023-07-24T13:53:23.998Z,94.34
2023-07-24T13:55:50.286Z,93.68
2023-07-24T13:58:16.559Z,91.05
2023-07-24T14:00:42.864Z,90.83
2023-07-24T14:03:09.257Z,92.29
2023-07-24T14:05:35.814Z,94.21
2023-07-24T14:08:02.103Z,91.46
2023-07-24T14:10:28.425Z,88.46
2023-07-24T14:12:54.721Z,83.68
2023-07-24T14:15:20.983Z,86.03
2023-07-24T14:17:47.335Z,87.30
2023-07-24T14:20:13.650Z,87.33
2023-07-24T14:22:39.929Z,87.01
2023-07-24T14:25:06.739Z,85.59
2023-07-24T14:27:33.216Z,86.15
2023-07-24T14:29:59.495Z,84.73
2023-07-24T14:32:25.817Z,83.08
2023-07-24T14:34:52.448Z,84.09
2023-07-24T14:37:19.134Z,82.14
2023-07-24T14:39:45.427Z,82.08
2023-07-24T14:42:12.007Z,83.40
2023-07-24T14:44:38.280Z,80.08
2023-07-24T14:47:04.729Z,79.83
2023-07-24T14:49:31.033Z,84.97
2023-07-24T14:51:57.320Z,79.44
2023-07-24T14:54:23.656Z,80.07
2023-07-24T14:56:57.396Z,83.96
2023-07-24T14:59:28.149Z,79.08
2023-07-24T15:01:54.480Z,80.04
2023-07-24T15:04:20.814Z,80.50
2023-07-24T15:06:47.103Z,80.09
2023-07-24T15:09:13.380Z,79.13
2023-07-24T15:11:39.684Z,81.67
2023-07-24T15:14:06.017Z,77.48
2023-07-24T15:16:32.371Z,74.09
2023-07-24T15:18:58.720Z,75.02
2023-07-24T15:21:26.382Z,74.10
2023-07-24T15:23:52.693Z,72.31
2023-07-24T15:26:19.180Z,74.26
2023-07-24T15:28:45.494Z,75.48
2023-07-24T15:31:11.825Z,75.88
2023-07-24T15:33:38.148Z,72.89
2023-07-24T15:38:30.759Z,73.20
2023-07-24T15:40:57.068Z,73.81
2023-07-24T15:43:23.346Z,72.88
2023-07-24T15:45:49.899Z,74.97
2023-07-24T15:48:20.376Z,77.61
2023-07-24T15:50:51.949Z,80.10
2023-07-24T15:53:18.293Z,78.11
2023-07-24T15:55:44.562Z,79.00
2023-07-24T15:58:10.834Z,79.55
2023-07-24T16:00:37.165Z,78.07
2023-07-24T16:03:03.575Z,77.26
2023-07-24T16:05:29.920Z,75.66
2023-07-24T16:07:56.200Z,71.42
2023-07-24T16:10:22.523Z,72.72
2023-07-24T16:12:48.859Z,75.01
2023-07-24T16:15:15.181Z,77.10
2023-07-24T16:18:05.594Z,82.15
2023-07-24T16:20:28.618Z,81.77
2023-07-24T16:22:55.000Z,83.22
2023-07-24T16:25:21.313Z,86.73
2023-07-24T16:27:47.605Z,85.25
2023-07-24T16:32:49.263Z,86.02
2023-07-24T16:35:16.054Z,88.19
2023-07-24T16:37:42.337Z,86.42
2023-07-24T16:40:09.407Z,85.86
2023-07-24T16:42:35.732Z,85.97
2023-07-24T16:45:02.049Z,83.65
2023-07-24T16:47:28.378Z,86.04
2023-07-24T16:49:54.793Z,86.31
2023-07-24T16:52:21.113Z,86.22
2023-07-24T16:54:47.419Z,86.65
2023-07-24T16:57:13.701Z,89.56
2023-07-24T16:59:40.015Z,90.74
2023-07-24T17:02:06.509Z,92.13
2023-07-24T17:04:32.786Z,94.14
2023-07-24T17:06:59.078Z,97.35
2023-07-24T17:09:25.364Z,98.40
2023-07-24T17:11:51.632Z,98.65
2023-07-24T17:14:17.972Z,100.00
2023-07-24T17:16:44.322Z,100.00
2023-07-24T17:19:10.622Z,100.00
2023-07-24T17:21:37.141Z,100.00
2023-07-24T17:24:04.139Z,99.65
2023-07-24T17:26:30.506Z,100.00
2023-07-24T17:28:56.790Z,99.30
2023-07-24T17:31:23.095Z,96.36
2023-07-24T17:33:49.353Z,96.02
2023-07-24T17:36:15.609Z,95.71
2023-07-24T17:38:41.902Z,95.81
2023-07-24T17:41:08.173Z,96.43
2023-07-24T17:43:34.456Z,99.60
2023-07-24T17:46:00.778Z,100.00
2023-07-24T17:48:27.083Z,100.00
2023-07-24T17:50:53.381Z,99.55
2023-07-24T17:53:19.669Z,80.88
2023-07-24T17:55:46.040Z,80.45
2023-07-24T17:58:12.322Z,79.51
2023-07-24T18:00:38.648Z,81.44
2023-07-24T18:03:04.947Z,80.70
2023-07-24T18:05:31.377Z,86.25
2023-07-24T18:07:57.654Z,83.26
2023-07-24T18:10:24.003Z,84.27
2023-07-24T18:12:50.400Z,83.31
2023-07-24T18:15:16.691Z,83.65
2023-07-24T18:17:43.450Z,86.04
2023-07-24T18:20:09.864Z,85.65
2023-07-24T18:22:36.144Z,85.16
2023-07-24T18:25:02.392Z,86.84
2023-07-24T18:27:28.705Z,88.23
2023-07-24T18:29:55.013Z,89.03
2023-07-24T18:32:21.423Z,88.61
2023-07-24T18:34:47.762Z,89.52
2023-07-24T18:37:14.088Z,89.89
2023-07-24T18:39:40.360Z,91.02
2023-07-24T18:42:06.728Z,92.06
2023-07-24T18:44:34.615Z,91.87
2023-07-24T18:47:00.921Z,93.73
2023-07-24T18:49:27.200Z,93.64
2023-07-24T18:51:53.496Z,94.07
2023-07-24T18:54:19.958Z,94.39
2023-07-24T18:56:46.260Z,94.04
2023-07-24T18:59:12.559Z,95.06
2023-07-24T19:01:38.940Z,96.30
2023-07-24T19:04:05.278Z,97.30
2023-07-24T19:06:31.626Z,96.93
2023-07-24T19:08:57.969Z,97.48
2023-07-24T19:11:24.263Z,98.10
2023-07-24T19:13:50.575Z,99.42
2023-07-24T19:16:16.858Z,100.00
2023-07-24T19:18:43.177Z,100.00
2023-07-24T19:21:09.465Z,100.00
2023-07-24T19:23:35.799Z,100.00
2023-07-24T19:26:02.213Z,100.00
2023-07-24T19:28:28.511Z,100.00
2023-07-24T19:30:55.339Z,100.00
2023-07-24T19:33:21.636Z,100.00
2023-07-24T19:35:47.914Z,100.00
2023-07-24T19:38:14.219Z,100.00
2023-07-24T19:40:40.614Z,100.00
2023-07-24T19:43:06.905Z,100.00
2023-07-24T19:45:37.868Z,100.00
2023-07-24T19:48:04.283Z,100.00
2023-07-24T19:50:30.593Z,100.00
2023-07-24T19:52:56.884Z,100.00
2023-07-24T19:55:23.224Z,100.00
2023-07-24T19:57:49.526Z,100.00
2023-07-24T20:00:15.997Z,100.00
2023-07-24T20:02:42.386Z,100.00
2023-07-24T20:05:08.824Z,100.00
2023-07-24T20:07:35.098Z,100.00
2023-07-24T20:10:01.397Z,100.00
2023-07-24T20:12:27.742Z,100.00
2023-07-24T20:14:54.060Z,100.00
2023-07-24T20:17:20.373Z,100.00
2023-07-24T20:19:48.209Z,100.00
2023-07-24T20:22:14.490Z,99.35
2023-07-24T20:24:40.864Z,99.96
2023-07-24T20:27:07.257Z,100.00
2023-07-24T20:29:33.852Z,100.00
2023-07-24T20:32:00.211Z,100.00
2023-07-24T20:34:26.508Z,100.00
2023-07-24T20:36:52.791Z,100.00
2023-07-24T20:39:19.053Z,100.00
2023-07-24T20:41:45.954Z,100.00
2023-07-24T20:44:12.306Z,100.00
2023-07-24T20:46:38.585Z,100.00
2023-07-24T20:49:04.912Z,100.00
2023-07-24T20:51:31.404Z,100.00
2023-07-24T20:53:57.921Z,100.00
2023-07-24T20:56:24.233Z,100.00
2023-07-24T20:58:50.656Z,100.00
2023-07-24T21:01:17.088Z,100.00
2023-07-24T21:03:43.408Z,100.00
2023-07-24T21:06:10.077Z,100.00
2023-07-24T21:08:36.385Z,100.00
2023-07-24T21:11:02.657Z,100.00
2023-07-24T21:13:28.950Z,100.00
2023-07-24T21:15:55.308Z,100.00
2023-07-24T21:18:22.131Z,100.00
2023-07-24T21:20:48.412Z,100.00
2023-07-24T21:23:15.000Z,100.00
2023-07-24T21:25:50.974Z,100.00
2023-07-24T21:28:17.265Z,100.00
2023-07-24T21:30:43.528Z,100.00
2023-07-24T21:33:09.843Z,100.00
2023-07-24T21:35:36.191Z,100.00
2023-07-24T21:38:02.474Z,100.00
2023-07-24T21:40:28.789Z,100.00
2023-07-24T21:42:55.065Z,100.00
2023-07-24T21:45:21.353Z,100.00
2023-07-24T21:47:47.684Z,100.00
2023-07-24T21:50:13.967Z,100.00
2023-07-24T21:52:42.144Z,100.00
2023-07-24T21:55:08.608Z,100.00
2023-07-24T21:57:34.910Z,100.00
2023-07-24T22:00:01.267Z,98.97
2023-07-24T22:02:27.660Z,99.00
2023-07-24T22:04:54.018Z,99.01
2023-07-24T22:07:20.314Z,97.68
2023-07-24T22:09:46.595Z,97.81
2023-07-24T22:12:12.925Z,98.01
2023-07-24T22:14:39.247Z,98.01
2023-07-24T22:17:05.738Z,98.90
2023-07-24T22:19:32.054Z,100.00
2023-07-24T22:21:58.397Z,100.00
2023-07-24T22:24:24.747Z,100.00
2023-07-24T22:26:51.064Z,100.00
2023-07-24T22:29:17.348Z,100.00
2023-07-24T22:31:43.637Z,100.00
2023-07-24T22:34:10.505Z,100.00
2023-07-24T22:36:36.765Z,100.00
2023-07-24T22:39:03.060Z,100.00
2023-07-24T22:41:29.528Z,100.00
2023-07-24T22:43:56.089Z,100.00
2023-07-24T22:46:22.503Z,100.00
2023-07-24T22:49:15.567Z,100.00
2023-07-24T22:51:41.859Z,100.00
2023-07-24T22:54:08.151Z,100.00
2023-07-24T22:56:34.464Z,100.00
2023-07-24T22:59:03.790Z,100.00
2023-07-24T23:01:31.496Z,100.00
2023-07-24T23:03:58.263Z,100.00
2023-07-24T23:06:24.570Z,100.00
2023-07-24T23:08:50.885Z,100.00
2023-07-24T23:11:17.163Z,100.00
2023-07-24T23:13:43.471Z,100.00
2023-07-24T23:16:09.812Z,100.00
2023-07-24T23:18:36.258Z,100.00
2023-07-24T23:21:02.842Z,100.00
2023-07-24T23:23:29.175Z,100.00
2023-07-24T23:25:55.441Z,100.00
2023-07-24T23:28:21.761Z,100.00
2023-07-24T23:30:48.045Z,100.00
2023-07-24T23:33:14.360Z,100.00
2023-07-24T23:35:40.634Z,100.00
2023-07-24T23:38:07.002Z,100.00
2023-07-24T23:40:33.301Z,100.00
2023-07-24T23:42:59.599Z,100.00
2023-07-24T23:45:25.896Z,100.00
2023-07-24T23:47:52.230Z,100.00
2023-07-24T23:50:18.525Z,100.00
2023-07-24T23:52:44.817Z,100.00
2023-07-24T23:55:11.071Z,100.00
2023-07-24T23:57:37.374Z,100.00
